Time;durP1;ratioP1;P1;durP2;ratioP2;P2;SDS_P1;SDS_P2;PMS_P1;PMS_P2;Temp;Humidity;BMP_temperature;BMP_pressure;BME280_temperature;BME280_humidity;BME280_pressure;Samples;Min_cycle;Max_cycle;Signal;HPM_P1;HPM_P2
2023/03/18 00:01:23;;;;;;;10.00;7.57;;;;;;;10.18;89.98;100764.75;5056146;28;20040;-71
2023/03/18 00:03:49;;;;;;;12.75;8.43;;;;;;;10.16;89.81;100774.44;5055872;28;20086;-71
2023/03/18 00:06:17;;;;;;;9.73;7.75;;;;;;;10.12;90.00;100775.47;5056049;28;20135;-71
2023/03/18 00:08:45;;;;;;;9.48;7.72;;;;;;;10.08;89.95;100781.75;5055773;28;20059;-71
2023/03/18 00:11:14;;;;;;;9.15;7.75;;;;;;;10.05;90.12;100774.84;5056486;28;20056;-71
2023/03/18 00:13:41;;;;;;;9.80;7.10;;;;;;;10.03;89.82;100775.84;5055533;28;20063;-71
2023/03/18 00:16:09;;;;;;;8.50;7.60;;;;;;;9.99;90.23;100775.94;5054824;28;20047;-71
2023/03/18 00:18:35;;;;;;;9.75;7.90;;;;;;;9.96;90.24;100776.06;5056273;28;20114;-71
2023/03/18 00:21:01;;;;;;;12.32;8.00;;;;;;;9.94;90.25;100780.50;5057910;28;20033;-71
2023/03/18 00:23:27;;;;;;;8.52;7.65;;;;;;;9.91;90.24;100771.91;5057304;28;20033;-71
2023/03/18 00:25:55;;;;;;;10.57;7.75;;;;;;;9.90;90.66;100778.06;5057796;28;20033;-71
2023/03/18 00:28:25;;;;;;;13.43;8.40;;;;;;;9.87;90.61;100773.81;5058128;28;20040;-71
2023/03/18 00:30:52;;;;;;;11.27;7.75;;;;;;;9.85;90.72;100774.78;5057422;28;20024;-71
2023/03/18 00:33:18;;;;;;;10.15;8.10;;;;;;;9.83;90.37;100771.38;5057675;28;20109;-71
2023/03/18 00:35:45;;;;;;;8.75;7.55;;;;;;;9.80;90.62;100773.19;5057294;28;20227;-71
2023/03/18 00:38:19;;;;;;;12.02;7.82;;;;;;;9.79;90.89;100776.72;5057692;28;20351;-71
2023/03/18 00:40:52;;;;;;;10.23;8.20;;;;;;;9.77;91.05;100778.53;5057360;28;20189;-71
2023/03/18 00:43:21;;;;;;;13.15;8.68;;;;;;;9.76;90.70;100766.38;5058067;28;20044;-71
2023/03/18 00:45:48;;;;;;;10.48;8.48;;;;;;;9.74;91.13;100762.13;5056776;28;20125;-71
2023/03/18 00:48:13;;;;;;;12.65;8.77;;;;;;;9.73;91.36;100769.13;5057359;28;20039;-71
2023/03/18 00:50:40;;;;;;;9.15;8.07;;;;;;;9.72;91.24;100775.25;5057490;28;20033;-71
2023/03/18 00:53:06;;;;;;;10.25;8.98;;;;;;;9.72;91.39;100777.03;5057774;28;20255;-71
2023/03/18 00:55:31;;;;;;;11.27;8.88;;;;;;;9.70;91.30;100777.06;5057735;28;20053;-71
2023/03/18 00:57:57;;;;;;;10.90;8.60;;;;;;;9.70;91.73;100771.00;5056922;28;20036;-71
2023/03/18 01:00:24;;;;;;;12.07;8.45;;;;;;;9.69;91.65;100771.91;5057599;28;20032;-71
2023/03/18 01:02:49;;;;;;;11.23;9.00;;;;;;;9.68;91.67;100768.44;5056519;28;20040;-71
2023/03/18 01:05:15;;;;;;;12.35;8.85;;;;;;;9.68;91.71;100770.19;5063870;28;20087;-72
2023/03/18 01:07:42;;;;;;;11.65;9.00;;;;;;;9.69;92.13;100769.28;5063462;28;20048;-71
2023/03/18 01:10:09;;;;;;;11.27;9.02;;;;;;;9.67;91.86;100766.72;5064044;28;20368;-71
2023/03/18 01:12:34;;;;;;;10.63;9.13;;;;;;;9.67;91.90;100771.94;5063697;28;20086;-71
2023/03/18 01:15:04;;;;;;;11.07;9.35;;;;;;;9.66;92.13;100764.16;5064364;28;20041;-71
2023/03/18 01:17:30;;;;;;;11.27;9.27;;;;;;;9.66;92.08;100764.16;5063875;28;20109;-71
2023/03/18 01:19:55;;;;;;;11.73;9.25;;;;;;;9.66;92.24;100769.38;5063305;28;20037;-71
2023/03/18 01:22:22;;;;;;;11.95;9.70;;;;;;;9.65;92.30;100771.16;5064497;28;20044;-71
2023/03/18 01:24:47;;;;;;;10.80;9.35;;;;;;;9.64;92.29;100779.06;5063586;28;20036;-71
2023/03/18 01:27:12;;;;;;;10.15;8.85;;;;;;;9.65;92.17;100773.78;5064091;28;20108;-71
2023/03/18 01:29:38;;;;;;;10.13;9.00;;;;;;;9.64;92.46;100784.28;5063907;28;20064;-71
2023/03/18 01:32:04;;;;;;;11.60;9.40;;;;;;;9.63;92.31;100780.81;5064118;28;20045;-71
2023/03/18 01:34:29;;;;;;;15.30;10.40;;;;;;;9.64;92.41;100779.06;5064035;28;20044;-71
2023/03/18 01:36:56;;;;;;;11.80;9.13;;;;;;;9.62;92.50;100779.09;5063296;28;20059;-71
2023/03/18 01:39:22;;;;;;;14.13;10.20;;;;;;;9.63;92.42;100777.38;5064161;28;20044;-71
2023/03/18 01:41:49;;;;;;;12.70;9.90;;;;;;;9.62;92.62;100766.03;5063538;28;20033;-71
2023/03/18 01:44:20;;;;;;;13.32;9.93;;;;;;;9.61;92.47;100775.66;5064085;28;20119;-71
2023/03/18 01:46:48;;;;;;;12.73;9.80;;;;;;;9.62;92.72;100771.25;5063192;28;20219;-71
2023/03/18 01:49:21;;;;;;;14.23;10.65;;;;;;;9.63;92.33;100772.97;5063689;28;20029;-71
2023/03/18 01:51:56;;;;;;;14.27;10.43;;;;;;;9.63;92.32;100767.75;5063372;28;20021;-71
2023/03/18 01:54:23;;;;;;;10.98;9.73;;;;;;;9.63;92.67;100766.91;5063856;28;20086;-71
2023/03/18 01:56:50;;;;;;;15.60;10.57;;;;;;;9.63;92.71;100767.75;5063543;28;20041;-71
2023/03/18 01:59:17;;;;;;;18.35;10.95;;;;;;;9.64;92.27;100773.81;5063703;28;20032;-71
2023/03/18 02:01:54;;;;;;;12.32;10.57;;;;;;;9.63;92.71;100783.44;5063147;28;20382;-71
2023/03/18 02:04:22;;;;;;;12.82;10.55;;;;;;;9.61;92.45;100775.66;5064081;28;20224;-71
2023/03/18 02:06:49;;;;;;;13.50;10.10;;;;;;;9.61;92.65;100783.50;5062801;28;20095;-71
2023/03/18 02:09:16;;;;;;;11.15;9.98;;;;;;;9.60;92.65;100786.16;5063726;28;20036;-71
2023/03/18 02:11:44;;;;;;;13.98;10.35;;;;;;;9.59;92.75;100784.47;5062713;28;20057;-71
2023/03/18 02:14:13;;;;;;;13.90;10.32;;;;;;;9.58;93.02;100782.75;5063691;28;20036;-71
2023/03/18 02:16:51;;;;;;;;;;;;;;;9.56;92.88;100779.34;5059227;28;20340;-71
2023/03/18 02:19:46;;;;;;;15.43;10.73;;;;;;;9.54;93.11;100774.19;5060621;28;19926;-71
2023/03/18 02:22:15;;;;;;;13.27;10.40;;;;;;;9.54;92.86;100770.72;5060737;28;20104;-71
2023/03/18 02:24:53;;;;;;;14.18;10.30;;;;;;;9.54;93.26;100782.03;5060238;28;20328;-71
2023/03/18 02:27:19;;;;;;;;;;;;;;;9.55;93.16;100781.13;5061044;28;20060;-71
2023/03/18 02:29:46;;;;;;;14.15;10.15;;;;;;;9.56;92.85;100787.19;5059664;28;20131;-71
2023/03/18 02:32:13;;;;;;;14.25;11.35;;;;;;;9.56;93.14;100793.25;5060159;28;20095;-71
2023/03/18 02:34:40;;;;;;;11.60;10.40;;;;;;;9.57;93.26;100792.38;5059546;28;20065;-71
2023/03/18 02:37:09;;;;;;;13.75;10.60;;;;;;;9.58;93.12;100787.97;5059991;28;20132;-71
2023/03/18 02:39:34;;;;;;;14.75;10.27;;;;;;;9.59;93.54;100787.09;5059626;28;20044;-71
2023/03/18 02:42:00;;;;;;;10.98;9.50;;;;;;;9.59;93.49;100774.88;5060609;28;20082;-71
2023/03/18 02:44:26;;;;;;;10.20;9.00;;;;;;;9.61;93.63;100785.25;5060083;28;20127;-71
2023/03/18 02:46:52;;;;;;;10.77;9.68;;;;;;;9.61;93.49;100775.66;5059231;28;20025;-71
2023/03/18 02:49:19;;;;;;;14.40;10.55;;;;;;;9.64;93.68;100786.91;5059823;28;20037;-71
2023/03/18 02:51:45;;;;;;;14.90;10.45;;;;;;;9.65;93.74;100791.22;5059391;28;20082;-71
2023/03/18 02:54:16;;;;;;;11.02;9.88;;;;;;;9.65;93.75;100786.84;5059596;28;20340;-71
2023/03/18 02:56:42;;;;;;;15.40;10.45;;;;;;;9.66;93.38;100787.69;5059403;28;20324;-71
2023/03/18 02:59:09;;;;;;;12.43;10.60;;;;;;;9.66;93.88;100793.78;5059793;28;20036;-71
2023/03/18 03:01:37;;;;;;;12.57;10.50;;;;;;;9.66;93.81;100799.03;5058972;28;20051;-71
2023/03/18 03:04:03;;;;;;;13.93;10.73;;;;;;;9.68;93.71;100791.09;5059695;28;20075;-71
2023/03/18 03:06:29;;;;;;;14.18;10.05;;;;;;;9.67;94.11;100794.63;5054987;28;20243;-71
2023/03/18 03:08:56;;;;;;;11.73;10.23;;;;;;;9.66;94.18;100796.41;5019305;28;20069;-71
2023/03/18 03:11:22;;;;;;;12.45;10.45;;;;;;;9.67;94.01;100792.88;5033276;28;20064;-71
2023/03/18 03:13:48;;;;;;;11.48;10.00;;;;;;;9.67;94.04;100792.03;5039037;28;20041;-71
2023/03/18 03:16:15;;;;;;;14.73;10.75;;;;;;;9.67;94.09;100800.72;5039365;28;20218;-71
2023/03/18 03:18:42;;;;;;;10.80;9.40;;;;;;;9.69;94.25;100792.81;5038462;28;20041;-71
2023/03/18 03:21:08;;;;;;;10.50;8.88;;;;;;;9.68;94.02;100797.19;5039309;28;20033;-71
2023/03/18 03:23:34;;;;;;;13.98;10.18;;;;;;;9.70;94.09;100810.22;5038929;28;20072;-71
2023/03/18 03:26:00;;;;;;;12.65;9.20;;;;;;;9.69;94.27;100808.50;5039212;28;20041;-71
2023/03/18 03:28:26;;;;;;;11.23;9.52;;;;;;;9.70;93.75;100811.06;5038817;28;20072;-71
2023/03/18 03:30:52;;;;;;;10.68;9.27;;;;;;;9.71;93.85;100809.28;5038525;28;20332;-71
2023/03/18 03:33:17;;;;;;;11.02;9.23;;;;;;;9.71;93.85;100811.91;5038961;28;20052;-71
2023/03/18 03:35:43;;;;;;;14.73;11.63;;;;;;;9.72;93.73;100813.63;5038483;28;20104;-71
2023/03/18 03:38:09;;;;;;;12.43;9.80;;;;;;;9.72;93.83;100819.69;5039338;28;20087;-71
2023/03/18 03:40:35;;;;;;;11.23;9.88;;;;;;;9.72;94.13;100824.09;5038550;28;20026;-71
2023/03/18 03:43:01;;;;;;;15.85;10.88;;;;;;;9.71;94.06;100817.16;5039292;28;20323;-73
2023/03/18 03:45:26;;;;;;;12.68;10.55;;;;;;;9.72;94.60;100821.47;5038990;28;20037;-73
2023/03/18 03:47:52;;;;;;;13.32;10.45;;;;;;;9.70;94.83;100826.75;5038032;28;20430;-70
2023/03/18 03:50:19;;;;;;;13.98;9.88;;;;;;;9.69;95.35;100825.03;5038933;28;20033;-70
2023/03/18 03:52:44;;;;;;;12.45;10.60;;;;;;;9.69;95.46;100819.81;5038341;28;20036;-70
2023/03/18 03:55:12;;;;;;;12.98;9.35;;;;;;;9.69;95.41;100827.66;5038562;28;20041;-70
2023/03/18 03:57:38;;;;;;;12.00;10.15;;;;;;;9.69;95.67;100827.66;5045082;28;20224;-70
2023/03/18 04:00:12;;;;;;;11.38;9.18;;;;;;;9.69;95.66;100824.19;5058812;28;20092;-70
2023/03/18 04:02:38;;;;;;;12.60;9.73;;;;;;;9.69;95.53;100818.97;5057747;28;20047;-70
2023/03/18 04:05:04;;;;;;;11.45;10.23;;;;;;;9.68;95.43;100814.63;5058349;28;20043;-70
2023/03/18 04:07:30;;;;;;;11.43;8.65;;;;;;;9.68;95.54;100819.88;5058433;28;20062;-70
2023/03/18 04:09:55;;;;;;;10.45;9.35;;;;;;;9.69;95.62;100825.03;5057635;28;20025;-70
2023/03/18 04:12:21;;;;;;;14.27;9.65;;;;;;;9.69;95.65;100827.66;5058385;28;20344;-70
2023/03/18 04:14:46;;;;;;;10.80;9.32;;;;;;;9.68;95.58;100825.97;5057402;28;20128;-70
2023/03/18 04:17:12;;;;;;;9.68;8.77;;;;;;;9.68;95.32;100831.19;5058142;28;20024;-70
2023/03/18 04:19:38;;;;;;;10.95;9.18;;;;;;;9.69;95.53;100829.44;5057699;28;20259;-70
2023/03/18 04:22:04;;;;;;;12.43;9.57;;;;;;;9.67;95.93;100829.47;5058366;28;20032;-70
2023/03/18 04:24:30;;;;;;;14.57;10.32;;;;;;;9.68;95.93;100835.56;5058155;28;20343;-70
2023/03/18 04:26:56;;;;;;;13.43;10.32;;;;;;;9.68;95.82;100843.41;5057596;28;20394;-70
2023/03/18 04:29:22;;;;;;;10.30;9.05;;;;;;;9.67;95.76;100847.78;5058092;28;20033;-70
2023/03/18 04:31:47;;;;;;;11.30;9.20;;;;;;;9.68;96.25;100853.84;5057721;28;20335;-70
2023/03/18 04:34:12;;;;;;;14.55;10.98;;;;;;;9.68;96.12;100862.56;5058673;28;20107;-70
2023/03/18 04:36:38;;;;;;;15.88;11.48;;;;;;;9.68;96.11;100865.19;5057526;28;20040;-70
2023/03/18 04:39:03;;;;;;;17.88;12.43;;;;;;;9.69;97.13;100874.72;5057519;28;20127;-70
2023/03/18 04:41:29;;;;;;;17.75;11.82;;;;;;;9.69;97.60;100871.25;5039838;28;20108;-70
2023/03/18 04:43:56;;;;;;;17.65;12.75;;;;;;;9.68;98.97;100880.00;5057855;28;20360;-70
2023/03/18 04:46:21;;;;;;;16.60;12.50;;;;;;;9.65;99.16;100883.59;5057900;28;20224;-70
2023/03/18 04:48:47;;;;;;;14.75;11.60;;;;;;;9.64;99.35;100883.66;5057164;28;20041;-70
2023/03/18 04:51:12;;;;;;;16.25;11.77;;;;;;;9.64;99.61;100879.28;5058017;28;20048;-70
2023/03/18 04:53:38;;;;;;;12.48;10.30;;;;;;;9.64;99.50;100886.25;5057337;28;20048;-70
2023/03/18 04:56:04;;;;;;;12.65;10.70;;;;;;;9.63;99.21;100887.19;5057696;28;20064;-70
2023/03/18 04:58:30;;;;;;;14.50;10.23;;;;;;;9.62;99.29;100886.31;5057814;28;20033;-70
2023/03/18 05:00:56;;;;;;;11.82;9.75;;;;;;;9.63;98.98;100890.66;5057194;28;20320;-70
2023/03/18 05:03:22;;;;;;;10.27;9.00;;;;;;;9.62;98.99;100886.31;5057294;28;20041;-70
2023/03/18 05:05:48;;;;;;;9.90;8.90;;;;;;;9.63;98.83;100892.41;5057094;28;20032;-70
2023/03/18 05:08:15;;;;;;;12.45;9.30;;;;;;;9.63;98.81;100881.97;5057682;28;20083;-70
2023/03/18 05:10:41;;;;;;;10.20;9.02;;;;;;;9.61;98.80;100882.84;5056903;28;20395;-70
2023/03/18 05:13:09;;;;;;;9.85;8.75;;;;;;;9.62;98.55;100888.94;5057688;28;20041;-70
2023/03/18 05:15:35;;;;;;;11.25;9.02;;;;;;;9.63;98.43;100879.34;5057147;28;20044;-70
2023/03/18 05:18:01;;;;;;;14.35;9.57;;;;;;;9.61;97.88;100882.84;5057285;28;20048;-70
2023/03/18 05:20:27;;;;;;;10.23;8.82;;;;;;;9.61;98.10;100872.41;5057475;28;20090;-70
2023/03/18 05:22:52;;;;;;;10.90;8.88;;;;;;;9.60;97.68;100875.06;5056966;28;20243;-70
2023/03/18 05:25:19;;;;;;;10.45;8.70;;;;;;;9.60;97.43;100880.28;5039492;28;20032;-70
2023/03/18 05:27:46;;;;;;;12.02;9.45;;;;;;;9.61;97.51;100874.16;5057105;28;20328;-70
2023/03/18 05:30:14;;;;;;;9.60;8.65;;;;;;;9.60;97.57;100872.44;5057483;28;20052;-70
2023/03/18 05:32:40;;;;;;;9.00;8.20;;;;;;;9.60;97.38;100878.56;5056675;28;20068;-70
2023/03/18 05:35:06;;;;;;;10.95;9.00;;;;;;;9.59;97.46;100876.84;5057333;28;20037;-70
2023/03/18 05:37:32;;;;;;;10.40;9.30;;;;;;;9.60;97.40;100873.31;5057820;28;20351;-70
2023/03/18 05:39:57;;;;;;;9.20;8.32;;;;;;;9.59;97.30;100876.84;5057300;28;20040;-70
2023/03/18 05:42:22;;;;;;;9.77;8.80;;;;;;;9.59;97.43;100878.59;5057743;28;20037;-70
2023/03/18 05:44:48;;;;;;;9.68;8.73;;;;;;;9.59;97.44;100873.38;5056768;28;20108;-70
2023/03/18 05:47:14;;;;;;;11.27;9.00;;;;;;;9.58;97.30;100875.13;5057149;28;20360;-70
2023/03/18 05:49:41;;;;;;;9.02;8.23;;;;;;;9.58;97.63;100863.81;5057261;28;20130;-70
2023/03/18 05:52:07;;;;;;;10.82;9.00;;;;;;;9.57;97.33;100859.50;5061078;28;20048;-70
2023/03/18 05:54:33;;;;;;;10.80;9.32;;;;;;;9.57;97.22;100872.56;5060679;28;20041;-70
2023/03/18 05:56:58;;;;;;;9.82;8.82;;;;;;;9.57;97.23;100883.03;5060667;28;20036;-70
2023/03/18 05:59:24;;;;;;;11.15;9.10;;;;;;;9.56;97.22;100876.09;5061141;28;20086;-70
2023/03/18 06:01:50;;;;;;;11.75;9.38;;;;;;;9.55;97.17;100885.69;5060059;28;20051;-70
2023/03/18 06:04:18;;;;;;;12.93;9.57;;;;;;;9.55;97.18;100879.59;5060711;28;20395;-70
2023/03/18 06:06:44;;;;;;;10.82;9.43;;;;;;;9.53;97.50;100890.13;5060106;28;20091;-70
2023/03/18 06:09:11;;;;;;;11.52;10.25;;;;;;;9.52;97.30;100890.19;5060964;28;20024;-70
2023/03/18 06:11:38;;;;;;;15.07;9.60;;;;;;;9.50;97.16;100890.22;5041952;28;20112;-70
2023/03/18 06:14:05;;;;;;;11.48;9.70;;;;;;;9.49;97.21;100887.66;5060606;28;20052;-70
2023/03/18 06:16:32;;;;;;;11.23;10.00;;;;;;;9.48;97.19;100901.63;5060239;28;20037;-70
2023/03/18 06:18:57;;;;;;;12.57;9.75;;;;;;;9.46;97.53;100906.06;5059673;28;20040;-70
2023/03/18 06:21:23;;;;;;;12.57;9.60;;;;;;;9.45;97.36;100917.44;5029454;28;20037;-70
2023/03/18 06:23:49;;;;;;;14.15;9.85;;;;;;;9.44;97.44;100918.34;5039830;28;20065;-70
2023/03/18 06:26:14;;;;;;;12.63;10.30;;;;;;;9.43;97.25;100916.66;5038055;28;20306;-70
2023/03/18 06:28:40;;;;;;;15.23;10.50;;;;;;;9.39;97.32;100921.97;5039493;28;20040;-70
2023/03/18 06:31:05;;;;;;;14.88;10.35;;;;;;;9.39;97.35;100924.59;5037209;28;20041;-70
2023/03/18 06:33:31;;;;;;;11.82;10.30;;;;;;;9.37;97.38;100928.19;5039526;28;20037;-70
2023/03/18 06:35:59;;;;;;;14.73;11.43;;;;;;;9.36;97.37;100940.38;5036879;28;20048;-70
2023/03/18 06:38:24;;;;;;;12.93;10.32;;;;;;;9.36;97.57;100931.69;5039976;28;20037;-70
2023/03/18 06:40:50;;;;;;;11.20;9.95;;;;;;;9.37;98.01;100936.88;5039124;28;20228;-70
2023/03/18 06:43:15;;;;;;;11.55;9.73;;;;;;;9.36;98.42;100940.38;5039899;28;20260;-70
2023/03/18 06:45:41;;;;;;;14.30;10.55;;;;;;;9.38;98.59;100938.56;5039425;28;20376;-70
2023/03/18 06:48:08;;;;;;;12.95;10.57;;;;;;;9.38;98.92;100941.16;5039019;28;20302;-70
2023/03/18 06:50:33;;;;;;;11.18;9.75;;;;;;;9.39;98.79;100945.50;5039734;28;20044;-70
2023/03/18 06:52:59;;;;;;;10.65;9.55;;;;;;;9.40;99.03;100949.84;5039446;28;20041;-70
2023/03/18 06:55:25;;;;;;;11.25;8.82;;;;;;;9.41;98.85;100953.28;5036721;28;20046;-70
2023/03/18 06:57:51;;;;;;;15.02;10.65;;;;;;;9.42;98.82;100952.38;5039422;28;20099;-70
2023/03/18 07:00:17;;;;;;;14.10;10.05;;;;;;;9.44;99.00;100954.94;5039703;28;20535;-70
2023/03/18 07:02:42;;;;;;;10.40;9.30;;;;;;;9.45;98.80;100951.44;5037666;28;20038;-70
2023/03/18 07:05:09;;;;;;;15.02;11.60;;;;;;;9.45;98.70;100947.03;5039389;28;20026;-70
2023/03/18 07:07:36;;;;;;;11.57;10.25;;;;;;;9.47;99.50;100953.06;5038705;28;20049;-70
2023/03/18 07:10:04;;;;;;;12.40;10.70;;;;;;;9.47;99.34;100955.69;5039029;28;20108;-70
2023/03/18 07:12:29;;;;;;;11.43;10.07;;;;;;;9.48;99.51;100949.56;5045979;28;20041;-70
2023/03/18 07:14:55;;;;;;;14.80;11.52;;;;;;;9.49;99.32;100951.25;5037755;28;20064;-70
2023/03/18 07:17:20;;;;;;;15.18;10.65;;;;;;;9.51;99.63;100954.66;5037304;28;20073;-70
2023/03/18 07:19:46;;;;;;;15.63;11.25;;;;;;;9.53;99.72;100949.38;5035387;28;20071;-70
2023/03/18 07:22:11;;;;;;;14.90;11.68;;;;;;;9.54;100.00;100956.34;5044670;28;20379;-70
2023/03/18 07:24:37;;;;;;;13.90;10.88;;;;;;;9.54;100.00;100959.81;5047627;28;20033;-70
2023/03/18 07:27:03;;;;;;;13.57;11.30;;;;;;;9.54;100.00;100962.41;5046606;28;20028;-70
2023/03/18 07:29:28;;;;;;;17.23;11.82;;;;;;;9.55;100.00;100963.25;5042335;28;20064;-70
2023/03/18 07:31:54;;;;;;;15.25;11.43;;;;;;;9.56;100.00;100960.59;5033837;28;20067;-70
2023/03/18 07:34:20;;;;;;;14.07;10.77;;;;;;;9.56;100.00;100963.22;5036129;28;20041;-70
2023/03/18 07:36:45;;;;;;;13.55;11.10;;;;;;;9.57;100.00;100961.47;5036250;28;20256;-70
2023/03/18 07:39:11;;;;;;;13.60;10.80;;;;;;;9.57;100.00;100954.47;5038526;28;20045;-70
2023/03/18 07:41:36;;;;;;;16.20;10.85;;;;;;;9.58;100.00;100948.31;5032939;28;20041;-70
2023/03/18 07:44:02;;;;;;;14.55;10.70;;;;;;;9.59;100.00;100957.88;5038211;28;20048;-70
2023/03/18 07:46:28;;;;;;;15.30;10.90;;;;;;;9.61;100.00;100963.06;5035866;28;20096;-70
2023/03/18 07:48:53;;;;;;;16.10;12.07;;;;;;;9.61;100.00;100966.53;5033584;28;20033;-70
2023/03/18 07:51:19;;;;;;;12.82;10.63;;;;;;;9.64;100.00;100980.41;5038119;28;20037;-70
2023/03/18 07:53:44;;;;;;;13.07;10.65;;;;;;;9.65;100.00;100979.50;5031949;28;20064;-70
2023/03/18 07:56:10;;;;;;;16.42;12.55;;;;;;;9.66;100.00;100982.06;5035241;28;20056;-70
2023/03/18 07:58:37;;;;;;;15.52;13.00;;;;;;;9.67;100.00;100977.69;5036900;28;20045;-70
2023/03/18 08:01:03;;;;;;;22.83;14.27;;;;;;;9.68;100.00;100977.66;5037417;28;20021;-70
2023/03/18 08:03:28;;;;;;;16.60;12.75;;;;;;;9.70;100.00;100975.81;5047624;28;20277;-70
2023/03/18 08:05:54;;;;;;;18.38;12.52;;;;;;;9.71;100.00;100974.91;5045720;28;20036;-70
2023/03/18 08:08:20;;;;;;;17.83;13.27;;;;;;;9.74;100.00;100971.34;5038246;28;20061;-70
2023/03/18 08:10:46;;;;;;;15.70;12.73;;;;;;;9.75;100.00;100962.56;5046603;28;20291;-70
2023/03/18 08:13:11;;;;;;;22.08;16.35;;;;;;;9.78;100.00;100954.63;5057245;28;20256;-70
2023/03/18 08:15:38;;;;;;;17.27;13.60;;;;;;;9.79;100.00;100951.97;5057239;28;20052;-70
2023/03/18 08:18:03;;;;;;;22.00;13.80;;;;;;;9.81;100.00;100951.91;5056970;28;20142;-70
2023/03/18 08:20:29;;;;;;;16.98;13.63;;;;;;;9.82;100.00;100958.81;5057655;28;20040;-70
2023/03/18 08:22:55;;;;;;;17.30;13.50;;;;;;;9.83;100.00;100963.16;5056126;28;20052;-70
2023/03/18 08:25:22;;;;;;;16.83;13.65;;;;;;;9.84;100.00;100957.03;5055410;28;20032;-70
2023/03/18 08:27:47;;;;;;;23.20;14.48;;;;;;;9.84;100.00;100967.50;5054679;28;20033;-70
2023/03/18 08:30:13;;;;;;;26.80;16.15;;;;;;;9.86;100.00;100972.66;5055411;28;20375;-70
2023/03/18 08:32:39;;;;;;;23.33;15.55;;;;;;;9.87;100.00;100972.59;5054169;28;20041;-70
2023/03/18 08:35:05;;;;;;;17.95;13.82;;;;;;;9.88;100.00;100992.63;5054264;28;20037;-70
2023/03/18 08:37:30;;;;;;;19.20;13.25;;;;;;;9.90;100.00;100993.44;5046867;28;20116;-70
2023/03/18 08:39:55;;;;;;;24.33;15.90;;;;;;;9.92;100.00;100994.22;5052513;28;20375;-70
2023/03/18 08:42:21;;;;;;;20.73;14.05;;;;;;;9.93;100.00;100995.94;5057380;28;20044;-70
2023/03/18 08:44:47;;;;;;;24.60;15.10;;;;;;;9.95;100.00;101011.56;5053271;28;20067;-70
2023/03/18 08:47:13;;;;;;;19.60;15.20;;;;;;;9.96;100.00;101014.13;5056733;28;20210;-70
2023/03/18 08:49:39;;;;;;;24.23;16.45;;;;;;;9.99;100.00;101007.97;5056559;28;20107;-70
2023/03/18 08:52:05;;;;;;;28.48;19.92;;;;;;;10.01;100.00;101016.59;5056976;28;20033;-70
2023/03/18 08:54:31;;;;;;;24.00;18.15;;;;;;;10.02;100.00;101015.69;5056721;28;20086;-70
2023/03/18 08:56:56;;;;;;;27.38;17.55;;;;;;;10.03;100.00;101020.00;5056079;28;20052;-70
2023/03/18 08:59:22;;;;;;;26.77;17.52;;;;;;;10.05;100.00;101033.88;5056927;28;20036;-70
2023/03/18 09:01:48;;;;;;;33.20;21.65;;;;;;;10.05;100.00;101039.13;5056242;28;20037;-70
2023/03/18 09:04:13;;;;;;;25.95;17.98;;;;;;;10.07;100.00;101039.91;5047219;28;20060;-70
2023/03/18 09:06:40;;;;;;;24.50;16.92;;;;;;;10.07;100.00;101037.31;5055181;28;20033;-70
2023/03/18 09:09:05;;;;;;;27.90;19.23;;;;;;;10.07;100.00;101037.31;5056394;28;20076;-70
2023/03/18 09:11:32;;;;;;;27.67;18.52;;;;;;;10.06;100.00;101024.28;5056658;28;20098;-70
2023/03/18 09:13:57;;;;;;;24.38;18.08;;;;;;;10.05;100.00;101026.03;5055709;28;20072;-70
2023/03/18 09:16:23;;;;;;;26.67;17.45;;;;;;;10.06;100.00;101025.16;5054866;28;20040;-70
2023/03/18 09:18:48;;;;;;;24.92;17.15;;;;;;;10.06;100.00;101017.28;5055183;28;20232;-70
2023/03/18 09:21:14;;;;;;;28.42;17.45;;;;;;;10.07;100.00;101024.22;5054842;28;20287;-70
2023/03/18 09:23:40;;;;;;;19.55;15.23;;;;;;;10.09;100.00;101016.31;5055106;28;20045;-70
2023/03/18 09:26:05;;;;;;;24.02;16.85;;;;;;;10.11;100.00;101017.97;5059883;28;20694;-70
2023/03/18 09:28:31;;;;;;;26.98;16.95;;;;;;;10.11;100.00;101014.50;5060313;28;20070;-70
2023/03/18 09:30:56;;;;;;;20.73;15.68;;;;;;;10.13;100.00;101016.16;5059907;28;20051;-70
2023/03/18 09:33:23;;;;;;;24.42;18.40;;;;;;;10.16;100.00;101026.50;5060640;28;20036;-70
2023/03/18 09:35:49;;;;;;;23.90;18.15;;;;;;;10.19;100.00;101036.88;5059922;28;20213;-70
2023/03/18 09:38:17;;;;;;;23.42;17.08;;;;;;;10.22;100.00;101027.19;5057775;28;20064;-70
2023/03/18 09:40:58;;;;;;;27.88;18.38;;;;;;;10.23;100.00;101035.00;5058875;28;20048;-70
2023/03/18 09:43:32;;;;;;;27.35;18.00;;;;;;;10.25;100.00;101030.56;5055092;28;20048;-70
2023/03/18 09:46:20;;;;;;;25.92;17.73;;;;;;;10.28;100.00;101022.59;5059400;28;20041;-70
2023/03/18 09:49:16;;;;;;;25.85;17.65;;;;;;;10.31;100.00;101021.66;5059725;28;20324;-70
2023/03/18 09:51:55;;;;;;;25.60;16.35;;;;;;;10.33;100.00;101020.72;5056305;28;20033;-70
2023/03/18 09:54:52;;;;;;;23.85;16.77;;;;;;;10.37;100.00;101024.91;5060565;28;20125;-70
2023/03/18 09:57:24;;;;;;;21.17;16.33;;;;;;;10.41;100.00;101025.66;5053886;28;20048;-70
2023/03/18 09:59:56;;;;;;;19.23;14.68;;;;;;;10.44;100.00;101025.56;5057799;28;20048;-70
2023/03/18 10:02:41;;;;;;;22.77;15.52;;;;;;;10.47;100.00;101022.81;5058371;28;20094;-70
2023/03/18 10:05:31;;;;;;;24.60;15.73;;;;;;;10.51;100.00;101032.28;5057632;28;20033;-70
2023/03/18 10:08:03;;;;;;;20.20;14.68;;;;;;;10.54;100.00;101029.53;5058714;28;20079;-70
2023/03/18 10:10:44;;;;;;;22.85;16.13;;;;;;;10.57;100.00;101031.19;5048872;28;20103;-70
2023/03/18 10:13:18;;;;;;;23.33;14.95;;;;;;;10.61;100.00;101031.94;5052494;28;20033;-70
2023/03/18 10:15:50;;;;;;;20.25;14.00;;;;;;;10.63;100.00;101027.47;5043238;28;20316;-70
2023/03/18 10:18:29;;;;;;;20.75;13.65;;;;;;;10.68;100.00;101029.00;5043634;28;20291;-70
2023/03/18 10:21:03;;;;;;;18.42;13.82;;;;;;;10.73;100.00;101034.06;5043994;28;20056;-70
2023/03/18 10:23:43;;;;;;;22.50;13.63;;;;;;;10.74;100.00;101031.38;5044018;28;20037;-70
2023/03/18 10:26:24;;;;;;;16.02;13.80;;;;;;;10.79;100.00;101030.34;5046214;28;20037;-70
2023/03/18 10:29:04;;;;;;;18.23;12.48;;;;;;;10.81;100.00;101036.41;5042410;28;20033;-70
2023/03/18 10:31:46;;;;;;;23.92;13.70;;;;;;;10.84;100.00;101037.16;5045680;28;20155;-70
2023/03/18 10:34:17;;;;;;;22.65;12.93;;;;;;;10.88;100.00;101038.72;5043809;28;20037;-70
2023/03/18 10:36:52;;;;;;;19.40;12.13;;;;;;;10.90;100.00;101043.91;5041326;28;20040;-70
2023/03/18 10:39:22;;;;;;;16.63;12.30;;;;;;;10.94;100.00;101043.72;5045516;28;20039;-70
2023/03/18 10:41:52;;;;;;;21.83;12.27;;;;;;;10.99;100.00;101034.81;5042382;28;20055;-70
2023/03/18 10:44:35;;;;;;;18.90;12.02;;;;;;;11.03;100.00;101041.66;5043928;28;20032;-70
2023/03/18 10:47:23;;;;;;;17.02;12.32;;;;;;;11.04;100.00;101041.59;5043609;28;20052;-70
2023/03/18 10:50:16;;;;;;;19.02;12.35;;;;;;;11.09;100.00;101036.16;5043645;28;20122;-70
2023/03/18 10:52:53;;;;;;;13.10;10.48;;;;;;;11.12;100.00;101042.13;5029617;28;20411;-70
2023/03/18 10:55:24;;;;;;;20.67;12.90;;;;;;;11.13;100.00;101049.09;5045879;28;20946;-70
2023/03/18 10:57:49;;;;;;;15.80;10.90;;;;;;;11.15;100.00;101051.63;5043443;28;20565;-70
2023/03/18 11:00:36;;;;;;;20.92;12.70;;;;;;;11.14;100.00;101053.41;5045299;28;20140;-70
2023/03/18 11:03:04;;;;;;;18.42;12.25;;;;;;;11.14;100.00;101047.31;5044613;28;20292;-70
2023/03/18 11:05:33;;;;;;;13.73;11.07;;;;;;;11.13;100.00;101050.84;5045818;28;20033;-70
2023/03/18 11:08:04;;;;;;;18.58;11.25;;;;;;;11.11;100.00;101052.69;5044047;28;20049;-70
2023/03/18 11:10:44;;;;;;;16.50;10.20;;;;;;;11.08;100.00;101050.19;5046238;28;20347;-70
2023/03/18 11:13:18;;;;;;;14.32;10.35;;;;;;;11.06;99.87;101046.75;5042840;28;20041;-70
2023/03/18 11:15:49;;;;;;;14.73;10.43;;;;;;;11.04;100.00;101049.47;5042849;28;20059;-70
2023/03/18 11:18:20;;;;;;;15.75;11.80;;;;;;;11.02;100.00;101048.66;5044672;28;20037;-70
2023/03/18 11:20:54;;;;;;;13.40;10.27;;;;;;;11.02;100.00;101053.03;5042557;28;20901;-70